Bison, Kansas
Current Conditions -  °F | °C
As of 7:55 AM on Friday 31 Oct 2014 (Local Time) from KGBD Reporting Station
Scattered Clouds Scattered Clouds  
Wind Chill: 23°   Ceiling: Unl
Heat Index: 34°   Visibility: 10mi
Dew Point: 25°   Wind: 17mph
Humidity: 70%   Direction: 30°NNE
Pressure: 30.5"   Gusts: NA
Location:  38.52°N, 99.2°W
Report Text: KGBD 311255Z AUTO 03015KT 10SM SCT015 01/M04 A3050 RMK AO1
Loading
Personal Weather Stations






























Interactive Weather Map
Tropical Storm Tracking
New forecast layout! Learn more

10-Day Weather Forecast

Advertisements
Track Severe Weather on mobile